Veneta, Oregon
Current Conditions -  °F | °C
As of 12:54 PM on Wednesday 17 Dec 2014 (Local Time) from KEUG Reporting Station
Overcast Overcast  
Wind Chill: 42°   Ceiling: 2300
Heat Index: 46°   Visibility: 8mi
Dew Point: 43°   Wind: 7mph
Humidity: 89%   Direction: 140°SE
Pressure: 29.86"   Gusts: NA
Location:  44.05°N, 123.35°W
Report Text: KEUG 172054Z 14006KT 8SM BKN023 OVC070 08/06 A2986 RMK AO2 RAE25 SLP113 P0003 60006 T00780061 50006
Loading
Personal Weather Stations






























Interactive Weather Map New forecast layout! Learn more

10-Day Weather Forecast

Advertisements
Track Severe Weather on mobile